Time;durP1;ratioP1;P1;durP2;ratioP2;P2;SDS_P1;SDS_P2;PMS_P1;PMS_P2;Temp;Humidity;BMP_temperature;BMP_pressure;BME280_temperature;BME280_humidity;BME280_pressure;Samples;Min_cycle;Max_cycle;Signal;HPM_P1;HPM_P2
2022/05/18 00:00:45;;;;;;;1.40;0.63;;;19.10;99.90;;;;;;5138293;27;20479;-67
2022/05/18 00:03:12;;;;;;;0.60;0.50;;;19.10;99.90;;;;;;5125931;27;20907;-67
2022/05/18 00:05:41;;;;;;;1.00;0.50;;;19.00;99.90;;;;;;5138037;27;20562;-67
2022/05/18 00:08:09;;;;;;;1.70;0.70;;;19.00;1.00;;;;;;5128479;27;20827;-67
2022/05/18 00:10:37;;;;;;;1.80;0.60;;;18.90;1.00;;;;;;5136790;27;20522;-67
2022/05/18 00:13:07;;;;;;;1.00;0.67;;;18.80;1.00;;;;;;5134644;27;20542;-67
2022/05/18 00:15:34;;;;;;;1.67;0.60;;;18.90;56.80;;;;;;5136927;27;20546;-67
2022/05/18 00:18:02;;;;;;;2.27;0.73;;;18.80;75.60;;;;;;5136671;27;20515;-67
2022/05/18 00:20:28;;;;;;;0.90;0.70;;;18.80;99.90;;;;;;5120820;27;20951;-67
2022/05/18 00:22:58;;;;;;;1.00;0.70;;;18.70;99.90;;;;;;5137200;27;20479;-67
2022/05/18 00:25:27;;;;;;;0.80;0.60;;;18.70;1.00;;;;;;5135857;27;20487;-66
2022/05/18 00:27:54;;;;;;;0.83;0.60;;;18.70;1.00;;;;;;5134637;27;20551;-67
2022/05/18 00:30:24;;;;;;;0.90;0.60;;;18.60;1.00;;;;;;5135333;27;20471;-66
2022/05/18 00:32:51;;;;;;;1.00;0.60;;;18.60;1.00;;;;;;5135706;27;20443;-67
2022/05/18 00:35:18;;;;;;;1.37;0.70;;;18.60;1.00;;;;;;5134479;27;20483;-66
2022/05/18 00:37:45;;;;;;;1.00;0.60;;;18.60;34.70;;;;;;5132555;27;20483;-66
2022/05/18 00:40:15;;;;;;;0.80;0.60;;;18.50;1.00;;;;;;5135430;27;20570;-66
2022/05/18 00:42:42;;;;;;;1.03;0.50;;;18.50;99.90;;;;;;5136418;27;20538;-67
2022/05/18 00:45:10;;;;;;;1.60;0.60;;;18.40;99.90;;;;;;5135835;27;20447;-66
2022/05/18 00:47:38;;;;;;;1.33;0.70;;;18.40;1.00;;;;;;5133573;27;20484;-67
2022/05/18 00:50:08;;;;;;;1.20;0.60;;;18.30;99.90;;;;;;5117365;28;20445;-67
2022/05/18 00:52:39;;;;;;;1.00;0.70;;;18.30;1.00;;;;;;5117300;28;20471;-67
2022/05/18 00:55:11;;;;;;;1.07;0.80;;;18.30;99.90;;;;;;5116851;28;20827;-67
2022/05/18 00:57:43;;;;;;;1.47;0.70;;;18.30;99.90;;;;;;5116333;28;20497;-66
2022/05/18 01:00:13;;;;;;;1.13;0.70;;;18.30;1.00;;;;;;5117808;27;20549;-67
2022/05/18 01:02:48;;;;;;;1.30;0.80;;;18.20;1.00;;;;;;5116534;28;20716;-66
2022/05/18 01:05:20;;;;;;;0.80;0.70;;;18.20;1.00;;;;;;5116446;28;20551;-67
2022/05/18 01:07:50;;;;;;;1.07;0.80;;;18.20;99.90;;;;;;5115577;28;20531;-66
2022/05/18 01:10:17;;;;;;;1.10;0.70;;;18.00;99.90;;;;;;5127221;27;20491;-66
2022/05/18 01:12:45;;;;;;;1.00;0.73;;;18.00;1.00;;;;;;5135074;27;20530;-66
2022/05/18 01:15:15;;;;;;;0.77;0.60;;;17.90;1.00;;;;;;5135552;27;20451;-67
2022/05/18 01:17:47;;;;;;;5.73;0.80;;;17.90;1.00;;;;;;5134245;27;20543;-67
2022/05/18 01:20:18;;;;;;;1.57;0.77;;;17.90;1.00;;;;;;5137099;27;21012;-67
2022/05/18 01:22:52;;;;;;;1.20;0.60;;;17.90;1.00;;;;;;5136691;28;20443;-67
2022/05/18 01:25:34;;;;;;;1.53;0.73;;;18.00;1.00;;;;;;5136055;27;20551;-67
2022/05/18 01:28:04;;;;;;;2.00;0.77;;;18.00;1.00;;;;;;5130350;27;20507;-67
2022/05/18 01:30:33;;;;;;;1.53;0.70;;;18.00;1.00;;;;;;5115971;28;20552;-67
2022/05/18 01:33:04;;;;;;;0.90;0.80;;;17.90;1.00;;;;;;5116193;28;20536;-66
2022/05/18 01:35:33;;;;;;;1.10;0.80;;;18.00;1.00;;;;;;5119102;27;20559;-66
2022/05/18 01:38:00;;;;;;;1.00;0.67;;;18.00;99.90;;;;;;5116622;28;20467;-66
2022/05/18 01:40:34;;;;;;;0.90;0.70;;;18.00;99.90;;;;;;5108153;28;20527;-66
2022/05/18 01:43:09;;;;;;;0.93;0.63;;;18.00;71.00;;;;;;5116521;28;20479;-66
2022/05/18 01:45:36;;;;;;;0.93;0.60;;;17.90;1.00;;;;;;5107373;28;20554;-66
2022/05/18 01:48:11;;;;;;;1.30;0.80;;;17.90;1.00;;;;;;5116354;28;20852;-66
2022/05/18 01:50:39;;;;;;;0.90;0.67;;;17.80;1.00;;;;;;5116254;28;20491;-66
2022/05/18 01:53:07;;;;;;;1.10;0.70;;;17.80;14.00;;;;;;5131493;27;20994;-66
2022/05/18 01:55:35;;;;;;;3.00;0.80;;;17.80;72.50;;;;;;5137281;27;20483;-66
2022/05/18 01:58:05;;;;;;;1.37;0.70;;;17.80;99.90;;;;;;5139689;27;20436;-66
2022/05/18 02:00:33;;;;;;;1.30;0.90;;;17.80;27.70;;;;;;5140214;27;20570;-66
2022/05/18 02:03:00;;;;;;;1.00;0.70;;;17.90;4.00;;;;;;5140888;27;20534;-66
2022/05/18 02:05:27;;;;;;;1.63;1.00;;;17.90;1.00;;;;;;5124843;27;20460;-66
2022/05/18 02:07:56;;;;;;;1.10;0.60;;;17.80;1.00;;;;;;5120396;28;20480;-65
2022/05/18 02:10:23;;;;;;;1.10;0.70;;;17.80;16.10;;;;;;5120283;28;20564;-66
2022/05/18 02:12:50;;;;;;;0.90;0.70;;;17.70;62.30;;;;;;5120114;28;20903;-67
2022/05/18 02:15:19;;;;;;;1.00;0.67;;;17.70;99.90;;;;;;5133172;27;20502;-65
2022/05/18 02:17:45;;;;;;;0.97;0.70;;;17.70;99.90;;;;;;5140090;27;20764;-65
2022/05/18 02:20:13;;;;;;;0.90;0.70;;;17.70;99.90;;;;;;5139944;27;20859;-65
2022/05/18 02:22:40;;;;;;;2.40;0.70;;;17.70;99.90;;;;;;5140007;27;20801;-66
2022/05/18 02:25:08;;;;;;;0.90;0.70;;;17.70;99.90;;;;;;5138165;27;20547;-66
2022/05/18 02:27:35;;;;;;;0.83;0.70;;;17.60;99.90;;;;;;5140202;27;20937;-66
2022/05/18 02:30:03;;;;;;;1.10;0.80;;;17.60;99.90;;;;;;5139671;27;20543;-65
2022/05/18 02:32:31;;;;;;;1.30;0.70;;;17.60;99.90;;;;;;5138079;27;20439;-65
2022/05/18 02:34:58;;;;;;;1.00;0.70;;;17.60;99.90;;;;;;5118867;28;20548;-66
2022/05/18 02:37:26;;;;;;;1.00;0.70;;;17.70;99.90;;;;;;5119961;28;20468;-64
2022/05/18 02:39:53;;;;;;;1.07;0.73;;;17.70;1.00;;;;;;5119296;28;20462;-66
2022/05/18 02:42:20;;;;;;;1.23;0.73;;;17.70;1.00;;;;;;5126022;27;20778;-66
2022/05/18 02:44:47;;;;;;;1.17;0.80;;;17.70;1.00;;;;;;5140519;27;20476;-66
2022/05/18 02:47:15;;;;;;;2.10;0.70;;;17.70;13.00;;;;;;5134550;27;20456;-66
2022/05/18 02:49:43;;;;;;;1.03;0.77;;;17.70;40.60;;;;;;5139826;27;20509;-65
2022/05/18 02:52:10;;;;;;;0.97;0.70;;;17.60;73.10;;;;;;5140065;27;20522;-66
2022/05/18 02:57:21;;;;;;;2.10;0.70;;;17.60;99.90;;;;;;5117651;27;20926;-66
2022/05/18 02:59:49;;;;;;;0.90;0.80;;;17.60;99.90;;;;;;5129251;27;20551;-66
2022/05/18 03:02:16;;;;;;;1.27;0.90;;;17.60;1.00;;;;;;5139121;27;20480;-66
2022/05/18 03:04:44;;;;;;;0.90;0.80;;;17.60;1.00;;;;;;5139797;27;20538;-66
2022/05/18 03:07:11;;;;;;;0.90;0.70;;;17.60;1.00;;;;;;5124528;27;20551;-66
2022/05/18 03:09:38;;;;;;;1.70;0.90;;;17.50;1.00;;;;;;5118391;28;20548;-66
2022/05/18 03:12:06;;;;;;;1.47;0.80;;;17.50;1.00;;;;;;5118394;28;20527;-65
2022/05/18 03:14:33;;;;;;;1.00;0.80;;;17.50;99.90;;;;;;5121099;27;20808;-66
2022/05/18 03:17:00;;;;;;;2.57;1.00;;;17.40;99.90;;;;;;5139201;27;20948;-66
2022/05/18 03:19:28;;;;;;;3.80;0.80;;;17.30;99.90;;;;;;5138371;27;20483;-66
2022/05/18 03:24:40;;;;;;;1.67;0.80;;;17.40;99.90;;;;;;5137260;27;20917;-66
2022/05/18 03:27:07;;;;;;;1.10;0.90;;;17.30;99.90;;;;;;5135506;27;20810;-66
2022/05/18 03:29:34;;;;;;;1.57;0.70;;;17.30;1.00;;;;;;5138673;27;20546;-66
2022/05/18 03:32:01;;;;;;;1.40;0.90;;;17.30;1.00;;;;;;5138107;27;20476;-66
2022/05/18 03:34:30;;;;;;;1.43;0.70;;;17.30;1.00;;;;;;5137437;27;20554;-67
2022/05/18 03:36:58;;;;;;;1.10;0.80;;;17.40;99.90;;;;;;5138272;27;20486;-67
2022/05/18 03:39:25;;;;;;;1.33;0.80;;;17.40;99.90;;;;;;5132201;27;20459;-67
2022/05/18 03:41:52;;;;;;;2.50;0.70;;;17.40;99.90;;;;;;5136318;27;20578;-68
2022/05/18 03:44:20;;;;;;;1.50;0.70;;;17.50;99.90;;;;;;5129539;27;20460;-66
2022/05/18 03:46:47;;;;;;;0.97;0.70;;;17.50;16.10;;;;;;5118034;28;20441;-66
2022/05/18 03:49:14;;;;;;;2.30;0.80;;;17.50;1.00;;;;;;5118425;28;20485;-66
2022/05/18 03:51:41;;;;;;;1.87;0.80;;;17.50;1.00;;;;;;5121286;27;20480;-67
2022/05/18 03:54:10;;;;;;;1.20;0.80;;;17.50;99.90;;;;;;5134911;27;20492;-67
2022/05/18 03:56:37;;;;;;;1.70;0.90;;;17.50;99.90;;;;;;5137761;27;20913;-67
2022/05/18 03:59:04;;;;;;;2.80;0.90;;;17.50;99.90;;;;;;5137927;27;20477;-68
2022/05/18 04:01:30;;;;;;;1.20;0.90;;;17.50;99.90;;;;;;5137644;27;20476;-67
2022/05/18 04:03:57;;;;;;;2.03;0.90;;;17.50;99.90;;;;;;5138209;27;20526;-66
2022/05/18 04:06:24;;;;;;;1.10;0.83;;;17.50;99.90;;;;;;5134739;27;20477;-67
2022/05/18 04:08:52;;;;;;;1.00;0.80;;;17.60;99.90;;;;;;5117371;28;20528;-68
2022/05/18 04:11:21;;;;;;;1.10;0.70;;;17.50;1.00;;;;;;5116967;28;20444;-67
2022/05/18 04:13:47;;;;;;;1.00;0.70;;;17.50;1.00;;;;;;5117758;28;20502;-67
2022/05/18 04:16:14;;;;;;;1.07;0.67;;;17.60;1.00;;;;;;5124604;27;20942;-68
2022/05/18 04:18:41;;;;;;;1.80;0.80;;;17.60;1.00;;;;;;5134148;27;20492;-67
2022/05/18 04:21:09;;;;;;;1.80;0.80;;;17.50;1.00;;;;;;5135746;27;20998;-68
2022/05/18 04:23:38;;;;;;;1.63;0.63;;;17.50;83.70;;;;;;5137446;27;20534;-68
2022/05/18 04:26:06;;;;;;;1.27;0.80;;;17.50;99.90;;;;;;5137166;27;20470;-64
2022/05/18 04:28:35;;;;;;;3.23;0.97;;;17.50;1.00;;;;;;5135142;27;20466;-66
2022/05/18 04:31:02;;;;;;;1.60;0.80;;;17.50;1.00;;;;;;5137689;27;20455;-65
2022/05/18 04:33:29;;;;;;;1.00;0.80;;;17.40;99.90;;;;;;5137040;27;20447;-65
2022/05/18 04:35:56;;;;;;;1.63;0.67;;;17.30;1.00;;;;;;5133465;27;20463;-66
2022/05/18 04:38:23;;;;;;;1.30;0.80;;;17.20;1.00;;;;;;5135683;27;20677;-66
2022/05/18 04:40:50;;;;;;;2.50;0.70;;;17.20;39.60;;;;;;5136258;27;21129;-66
2022/05/18 04:43:20;;;;;;;1.10;0.70;;;17.10;90.50;;;;;;5132614;27;20444;-66
2022/05/18 04:45:50;;;;;;;1.40;0.80;;;17.20;99.90;;;;;;5120206;27;20475;-65
2022/05/18 04:48:18;;;;;;;0.80;0.60;;;17.20;99.90;;;;;;5130000;27;20457;-65
2022/05/18 04:50:47;;;;;;;2.27;0.83;;;17.20;48.50;;;;;;5115570;28;20449;-65
2022/05/18 04:53:15;;;;;;;4.50;0.80;;;17.20;99.90;;;;;;5125264;27;21087;-66
2022/05/18 04:55:42;;;;;;;1.43;0.80;;;17.20;99.90;;;;;;5104230;28;20464;-67
2022/05/18 04:58:09;;;;;;;1.60;0.60;;;17.20;99.90;;;;;;5120152;27;20472;-66
2022/05/18 05:00:37;;;;;;;1.10;0.80;;;17.20;81.20;;;;;;5133441;27;20487;-66
2022/05/18 05:03:06;;;;;;;1.27;0.80;;;17.30;1.00;;;;;;5115559;28;20480;-66
2022/05/18 05:05:33;;;;;;;1.37;0.83;;;17.30;1.00;;;;;;5134472;27;20491;-66
2022/05/18 05:07:59;;;;;;;2.90;0.70;;;17.40;99.90;;;;;;5132478;27;20546;-62
2022/05/18 05:10:26;;;;;;;1.00;0.60;;;17.40;99.90;;;;;;5134900;27;20542;-65
2022/05/18 05:12:53;;;;;;;1.00;0.60;;;17.50;1.00;;;;;;5130101;27;20887;-65
2022/05/18 05:15:20;;;;;;;1.17;0.80;;;17.60;1.00;;;;;;5135445;27;20538;-66
2022/05/18 05:17:47;;;;;;;2.00;0.60;;;17.60;49.50;;;;;;5134916;27;20543;-66
2022/05/18 05:20:16;;;;;;;1.30;0.80;;;17.70;1.00;;;;;;5120104;28;20591;-66
2022/05/18 05:22:43;;;;;;;1.20;0.70;;;17.70;1.00;;;;;;5127146;27;20555;-66
2022/05/18 05:25:10;;;;;;;0.93;0.60;;;17.80;1.00;;;;;;5132414;28;20463;-66
2022/05/18 05:27:37;;;;;;;0.93;0.70;;;17.90;99.90;;;;;;5133268;27;20509;-67
2022/05/18 05:30:05;;;;;;;1.60;0.70;;;17.90;99.90;;;;;;5133776;27;20548;-66
2022/05/18 05:32:32;;;;;;;1.40;0.70;;;18.10;99.90;;;;;;5126866;27;20946;-67
2022/05/18 05:35:00;;;;;;;2.20;0.70;;;18.20;93.50;;;;;;5132270;27;20527;-65
2022/05/18 05:37:28;;;;;;;1.00;0.60;;;18.40;99.90;;;;;;5121592;27;20465;-66
2022/05/18 05:39:56;;;;;;;1.87;0.87;;;18.50;1.00;;;;;;5126583;27;20459;-66
2022/05/18 05:42:23;;;;;;;2.17;0.70;;;18.60;99.90;;;;;;5125266;27;20477;-66
2022/05/18 05:44:50;;;;;;;1.37;1.00;;;18.70;1.00;;;;;;5121293;27;20463;-65
2022/05/18 05:47:17;;;;;;;1.43;0.90;;;18.70;99.90;;;;;;5126327;27;20511;-65
2022/05/18 05:49:44;;;;;;;2.60;0.90;;;18.70;42.20;;;;;;5124797;27;20852;-64
2022/05/18 05:52:12;;;;;;;1.30;0.80;;;18.70;1.00;;;;;;5119814;27;20493;-64
2022/05/18 05:54:40;;;;;;;1.73;0.70;;;18.70;1.00;;;;;;5130462;27;20455;-63
2022/05/18 05:57:07;;;;;;;1.67;0.70;;;18.60;1.00;;;;;;5128893;27;20961;-62
2022/05/18 05:59:36;;;;;;;0.90;0.60;;;18.70;1.00;;;;;;5131043;27;20451;-61
2022/05/18 06:02:06;;;;;;;2.67;0.70;;;18.70;1.00;;;;;;5137716;27;20570;-61
2022/05/18 06:04:34;;;;;;;1.10;0.70;;;18.70;1.00;;;;;;5126462;27;20466;-63
2022/05/18 06:07:01;;;;;;;1.20;0.77;;;18.80;1.00;;;;;;5133766;27;20946;-60
2022/05/18 06:09:28;;;;;;;1.23;0.63;;;18.90;1.00;;;;;;5134021;27;20460;-62
2022/05/18 06:11:56;;;;;;;3.20;0.90;;;19.00;99.90;;;;;;5133586;27;20908;-61
2022/05/18 06:14:24;;;;;;;1.90;0.83;;;19.10;99.90;;;;;;5138414;27;20452;-60
2022/05/18 06:16:51;;;;;;;1.00;0.70;;;19.20;99.90;;;;;;5134959;27;20464;-60
2022/05/18 06:19:18;;;;;;;1.13;0.70;;;19.30;1.00;;;;;;5119169;27;20551;-61
2022/05/18 06:21:47;;;;;;;1.00;0.70;;;19.40;1.00;;;;;;5132555;27;20490;-60
2022/05/18 06:24:15;;;;;;;0.97;0.70;;;19.50;1.00;;;;;;5134522;27;20451;-61
2022/05/18 06:26:42;;;;;;;2.80;0.80;;;19.50;28.00;;;;;;5135822;27;20447;-62
2022/05/18 06:29:10;;;;;;;4.17;0.80;;;19.60;9.70;;;;;;5135377;27;20509;-62
2022/05/18 06:31:37;;;;;;;1.20;0.77;;;19.70;57.30;;;;;;5138137;27;20444;-61
2022/05/18 06:34:04;;;;;;;4.43;0.70;;;19.80;1.00;;;;;;5135576;27;20459;-61
2022/05/18 06:36:34;;;;;;;1.03;0.80;;;19.80;1.00;;;;;;5133651;27;20462;-60
2022/05/18 06:39:01;;;;;;;2.20;0.70;;;19.90;1.00;;;;;;5135255;27;20448;-61
2022/05/18 06:41:28;;;;;;;1.30;0.70;;;20.00;1.00;;;;;;5133966;27;20471;-61
2022/05/18 06:43:57;;;;;;;1.87;0.60;;;20.20;1.00;;;;;;5136212;27;20439;-61
2022/05/18 06:46:26;;;;;;;1.00;0.70;;;20.20;1.00;;;;;;5133086;27;20464;-60
2022/05/18 06:48:54;;;;;;;3.07;0.73;;;20.20;99.90;;;;;;5135725;27;20540;-58
2022/05/18 06:51:23;;;;;;;1.50;0.90;;;20.30;99.90;;;;;;5119661;27;20975;-58
2022/05/18 06:53:52;;;;;;;0.87;0.70;;;20.40;99.90;;;;;;5133744;27;20514;-58
2022/05/18 06:56:20;;;;;;;11.73;0.80;;;20.50;99.90;;;;;;5126626;27;20804;-58
2022/05/18 06:58:48;;;;;;;0.90;0.60;;;20.70;99.90;;;;;;5132989;27;20432;-58
2022/05/18 07:01:15;;;;;;;0.80;0.63;;;20.70;99.90;;;;;;5132422;27;20448;-58
2022/05/18 07:03:44;;;;;;;0.93;0.70;;;20.90;99.90;;;;;;5135567;27;21022;-58
2022/05/18 07:06:12;;;;;;;1.50;0.67;;;21.00;43.40;;;;;;5127833;27;20444;-59
2022/05/18 07:08:40;;;;;;;1.57;0.50;;;21.10;16.20;;;;;;5122886;27;20440;-59
2022/05/18 07:11:07;;;;;;;0.87;0.60;;;21.30;1.00;;;;;;5129150;27;20436;-58
2022/05/18 07:13:35;;;;;;;1.93;0.60;;;21.30;1.00;;;;;;5122804;27;20923;-60
2022/05/18 07:16:03;;;;;;;1.27;0.73;;;21.30;1.00;;;;;;5133816;27;20818;-60
2022/05/18 07:18:32;;;;;;;2.20;1.23;;;21.40;1.00;;;;;;5135931;27;20527;-60
2022/05/18 07:21:02;;;;;;;1.30;0.70;;;21.40;1.00;;;;;;5133686;27;20507;-58
2022/05/18 07:23:29;;;;;;;4.00;0.70;;;21.40;1.00;;;;;;5136545;27;20515;-57
2022/05/18 07:25:58;;;;;;;0.90;0.60;;;21.60;1.00;;;;;;5135355;27;20534;-59
2022/05/18 07:28:25;;;;;;;1.73;0.60;;;21.70;1.00;;;;;;5127580;27;20472;-58
2022/05/18 07:30:54;;;;;;;2.37;1.33;;;21.80;1.00;;;;;;5125638;27;20531;-57
2022/05/18 07:33:22;;;;;;;2.30;1.20;;;21.90;1.00;;;;;;5135545;27;20436;-56
2022/05/18 07:35:50;;;;;;;1.23;0.70;;;21.90;1.00;;;;;;5134217;27;20541;-57
2022/05/18 07:38:19;;;;;;;1.70;1.23;;;21.90;1.00;;;;;;5133293;27;20452;-57
2022/05/18 07:40:48;;;;;;;5.37;3.53;;;22.00;1.00;;;;;;5135592;27;20766;-58
2022/05/18 07:43:17;;;;;;;1.47;0.60;;;22.20;1.00;;;;;;5134480;27;20480;-58
2022/05/18 07:45:44;;;;;;;2.30;0.70;;;22.30;1.00;;;;;;5135962;27;20540;-58
2022/05/18 07:48:10;;;;;;;0.90;0.60;;;22.40;1.00;;;;;;5134161;27;20526;-58
2022/05/18 07:50:38;;;;;;;0.80;0.60;;;22.30;1.00;;;;;;5129755;27;20452;-59
2022/05/18 07:53:05;;;;;;;1.70;0.73;;;22.20;1.00;;;;;;5132984;27;21165;-58
2022/05/18 07:55:34;;;;;;;1.20;0.90;;;22.30;1.00;;;;;;5131400;27;20455;-58
2022/05/18 07:58:05;;;;;;;1.40;0.70;;;22.40;1.00;;;;;;5131700;27;20529;-59
2022/05/18 08:00:32;;;;;;;0.90;0.70;;;22.40;1.00;;;;;;5133643;27;20757;-59
2022/05/18 08:02:59;;;;;;;1.13;0.60;;;22.50;1.00;;;;;;5134402;27;20468;-59
2022/05/18 08:05:26;;;;;;;1.00;0.80;;;22.60;1.00;;;;;;5134484;27;20813;-59
2022/05/18 08:07:52;;;;;;;0.70;0.60;;;22.70;1.00;;;;;;5132386;27;20539;-58
2022/05/18 08:15:54;;;;;;;0.70;0.50;;;23.10;1.00;;;;;;5106195;27;20439;-58
2022/05/18 08:18:21;;;;;;;1.20;0.70;;;23.20;1.00;;;;;;5134565;27;20462;-58
2022/05/18 08:20:49;;;;;;;1.30;0.70;;;23.30;1.00;;;;;;5120573;27;20843;-58
2022/05/18 08:23:17;;;;;;;1.47;0.77;;;23.40;1.00;;;;;;5128887;27;20476;-58
2022/05/18 08:25:46;;;;;;;1.57;0.73;;;23.40;1.00;;;;;;5134827;27;20657;-58
2022/05/18 08:28:15;;;;;;;1.63;0.67;;;23.30;1.00;;;;;;5135382;27;20486;-58
2022/05/18 08:30:44;;;;;;;1.00;0.60;;;23.30;1.00;;;;;;5125914;27;20582;-59
2022/05/18 08:33:12;;;;;;;1.20;0.70;;;23.30;1.00;;;;;;5130014;27;20448;-58
2022/05/18 08:35:40;;;;;;;1.27;0.80;;;23.50;1.00;;;;;;5135054;27;20790;-58
2022/05/18 08:38:08;;;;;;;0.90;0.80;;;23.60;1.00;;;;;;5132257;27;20472;-58
2022/05/18 08:40:43;;;;;;;1.00;0.70;;;23.60;1.00;;;;;;5125815;27;20455;-57
2022/05/18 08:43:14;;;;;;;0.70;0.60;;;23.70;1.00;;;;;;5132579;27;20481;-58
2022/05/18 08:45:47;;;;;;;1.00;0.70;;;23.80;1.00;;;;;;5134067;27;20455;-60
2022/05/18 08:48:24;;;;;;;0.80;0.70;;;24.00;1.00;;;;;;5149541;27;20758;-58
2022/05/18 08:50:55;;;;;;;2.17;0.73;;;24.20;1.00;;;;;;5130151;27;20555;-59
2022/05/18 08:53:35;;;;;;;1.80;0.80;;;24.40;1.00;;;;;;5133905;27;20526;-60
2022/05/18 08:56:09;;;;;;;0.97;0.80;;;24.50;1.00;;;;;;5128427;27;20558;-57
2022/05/18 08:58:42;;;;;;;1.30;0.80;;;24.60;1.00;;;;;;5131737;27;20459;-59
2022/05/18 09:01:15;;;;;;;1.00;0.63;;;24.70;1.00;;;;;;5115741;27;20443;-57
2022/05/18 09:03:46;;;;;;;1.10;0.80;;;24.80;1.00;;;;;;5132197;27;20475;-59
2022/05/18 09:06:24;;;;;;;1.53;0.70;;;24.90;1.00;;;;;;5140558;27;21159;-59
2022/05/18 09:11:45;;;;;;;1.47;0.67;;;25.10;1.00;;;;;;5133631;27;20562;-57
2022/05/18 09:14:14;;;;;;;1.00;0.77;;;25.20;1.00;;;;;;5123103;27;20552;-57
2022/05/18 09:16:45;;;;;;;1.00;0.70;;;25.10;1.00;;;;;;5132172;27;20974;-58
2022/05/18 09:19:24;;;;;;;1.10;0.70;;;25.00;1.00;;;;;;5133468;27;20565;-57
2022/05/18 09:22:01;;;;;;;0.80;0.60;;;25.00;1.00;;;;;;5133259;27;20753;-59
2022/05/18 09:24:40;;;;;;;1.03;0.80;;;24.90;1.00;;;;;;5125867;27;20569;-59
2022/05/18 09:27:24;;;;;;;1.43;0.60;;;25.10;1.00;;;;;;5129454;27;20448;-59
2022/05/18 09:30:03;;;;;;;1.50;0.50;;;25.30;1.00;;;;;;5133073;28;20487;-58
2022/05/18 09:32:52;;;;;;;0.80;0.70;;;25.60;1.00;;;;;;5127413;27;20439;-59
2022/05/18 09:35:34;;;;;;;0.80;0.60;;;25.50;1.00;;;;;;5132556;27;20479;-59
2022/05/18 09:38:05;;;;;;;1.00;0.60;;;25.60;1.00;;;;;;5131703;28;20473;-59
2022/05/18 09:40:36;;;;;;;0.63;0.50;;;25.60;1.00;;;;;;5130722;28;20448;-59
2022/05/18 09:43:10;;;;;;;0.77;0.60;;;25.40;1.00;;;;;;5132052;27;20577;-59
2022/05/18 09:45:40;;;;;;;1.70;1.40;;;25.60;1.00;;;;;;5132175;27;20459;-58
2022/05/18 09:48:13;;;;;;;1.03;0.80;;;25.50;1.00;;;;;;5133637;27;20783;-58
2022/05/18 09:50:43;;;;;;;1.50;0.70;;;25.30;1.00;;;;;;5132255;27;21125;-59
2022/05/18 09:53:10;;;;;;;0.90;0.70;;;25.40;1.00;;;;;;5131190;27;20493;-58
2022/05/18 09:55:37;;;;;;;0.90;0.70;;;25.60;1.00;;;;;;5127956;28;21031;-59
2022/05/18 09:58:10;;;;;;;5.90;2.90;;;25.80;1.00;;;;;;5131894;27;20454;-58
2022/05/18 10:00:38;;;;;;;0.80;0.50;;;26.20;1.00;;;;;;5120831;27;20464;-61
2022/05/18 10:08:49;;;;;;;0.70;0.50;;;27.20;1.00;;;;;;5129502;27;20442;-60
2022/05/18 10:11:18;;;;;;;1.33;0.80;;;27.30;1.00;;;;;;5132160;28;20517;-60
2022/05/18 10:13:59;;;;;;;0.80;0.70;;;27.60;1.00;;;;;;5132175;28;20531;-62
2022/05/18 10:16:37;;;;;;;0.70;0.60;;;27.70;1.00;;;;;;5126734;28;20435;-60
2022/05/18 10:19:06;;;;;;;1.17;0.63;;;28.00;1.00;;;;;;5134970;27;20582;-62
2022/05/18 10:21:36;;;;;;;1.57;0.60;;;28.20;1.00;;;;;;5122490;27;20563;-60
2022/05/18 10:24:07;;;;;;;0.70;0.60;;;28.30;1.00;;;;;;5125057;27;20504;-60
2022/05/18 10:26:38;;;;;;;0.63;0.50;;;28.50;1.00;;;;;;5127045;27;20531;-59
2022/05/18 10:29:08;;;;;;;0.70;0.50;;;28.60;1.00;;;;;;5136522;27;20486;-58
2022/05/18 10:31:38;;;;;;;0.70;0.60;;;28.50;1.00;;;;;;5131983;27;20971;-58
2022/05/18 10:34:19;;;;;;;1.87;0.60;;;28.70;1.00;;;;;;5135147;27;20538;-57
2022/05/18 10:36:48;;;;;;;1.40;0.70;;;28.70;1.00;;;;;;5119501;27;21096;-58
2022/05/18 10:39:35;;;;;;;0.90;0.60;;;28.90;1.00;;;;;;5123050;27;20457;-59
2022/05/18 10:42:08;;;;;;;1.10;0.60;;;29.30;1.00;;;;;;5129435;27;20539;-58
2022/05/18 10:44:37;;;;;;;0.90;0.60;;;29.40;1.00;;;;;;5126410;27;20479;-59
2022/05/18 10:47:19;;;;;;;0.70;0.40;;;29.50;1.00;;;;;;5131455;27;22182;-56
2022/05/18 10:49:48;;;;;;;0.77;0.50;;;29.50;1.00;;;;;;5134980;27;20961;-57
2022/05/18 10:52:17;;;;;;;3.03;0.60;;;29.50;1.00;;;;;;5116320;28;20448;-58
2022/05/18 10:54:57;;;;;;;1.10;0.60;;;29.40;1.00;;;;;;5128282;27;20542;-58
2022/05/18 10:57:31;;;;;;;0.50;0.40;;;29.50;1.00;;;;;;5127453;27;20971;-59
2022/05/18 11:00:06;;;;;;;1.03;0.40;;;30.00;1.00;;;;;;5130220;27;20534;-58
2022/05/18 11:02:41;;;;;;;0.70;0.40;;;30.50;1.00;;;;;;5123842;27;20543;-58
2022/05/18 11:05:23;;;;;;;4.80;0.50;;;30.40;1.00;;;;;;5127085;27;20539;-57
2022/05/18 11:07:50;;;;;;;2.00;0.50;;;29.80;1.00;;;;;;5133055;27;20471;-57
2022/05/18 11:10:18;;;;;;;1.13;0.80;;;29.50;1.00;;;;;;5131454;27;20913;-56
2022/05/18 11:12:51;;;;;;;0.70;0.50;;;29.50;1.00;;;;;;5128961;27;20574;-57
2022/05/18 11:15:25;;;;;;;0.73;0.50;;;29.80;1.00;;;;;;5132938;27;20482;-57
2022/05/18 11:18:04;;;;;;;1.37;0.50;;;30.10;1.00;;;;;;5132842;27;20542;-58
2022/05/18 11:20:42;;;;;;;0.90;0.60;;;30.30;1.00;;;;;;5132335;27;20536;-58
2022/05/18 11:23:20;;;;;;;0.80;0.60;;;30.40;1.00;;;;;;5132618;27;20444;-59
2022/05/18 11:25:53;;;;;;;0.70;0.60;;;30.60;1.00;;;;;;5134360;27;20821;-59
2022/05/18 11:28:29;;;;;;;0.73;0.60;;;29.90;1.00;;;;;;5134641;27;20436;-57
2022/05/18 11:31:12;;;;;;;1.00;0.67;;;30.30;1.00;;;;;;5132878;27;20475;-57
2022/05/18 11:33:47;;;;;;;1.17;0.80;;;30.50;1.00;;;;;;5132942;27;20999;-58
2022/05/18 11:36:25;;;;;;;0.97;0.80;;;30.60;1.00;;;;;;5121335;27;21044;-58
2022/05/18 11:39:08;;;;;;;1.20;0.60;;;30.50;1.00;;;;;;5133308;27;20535;-58
2022/05/18 11:41:59;;;;;;;0.90;0.50;;;30.20;1.00;;;;;;5125761;27;20808;-58
2022/05/18 11:44:33;;;;;;;0.90;0.50;;;30.50;1.00;;;;;;5132975;27;20475;-58
2022/05/18 11:47:23;;;;;;;2.10;0.60;;;30.50;1.00;;;;;;5125748;27;20458;-58
2022/05/18 11:49:57;;;;;;;0.60;0.50;;;30.90;1.00;;;;;;5119690;27;20548;-59
2022/05/18 11:52:41;;;;;;;0.90;0.70;;;31.00;1.00;;;;;;5132479;27;20812;-58
2022/05/18 11:55:21;;;;;;;0.87;0.50;;;30.90;1.00;;;;;;5132084;27;20528;-58
2022/05/18 11:57:55;;;;;;;0.90;0.50;;;30.90;1.00;;;;;;5132744;27;20550;-55
2022/05/18 12:00:45;;;;;;;0.80;0.50;;;30.90;1.00;;;;;;5119681;27;20519;-58
2022/05/18 12:03:42;;;;;;;0.80;0.60;;;31.20;1.00;;;;;;5118620;27;20477;-56
2022/05/18 12:06:42;;;;;;;0.90;0.60;;;31.40;1.00;;;;;;5130748;27;20467;-57
2022/05/18 12:09:31;;;;;;;0.83;0.50;;;31.60;1.00;;;;;;5130208;27;20522;-56
2022/05/18 12:12:05;;;;;;;0.50;0.40;;;31.80;1.00;;;;;;5111349;27;20440;-57
2022/05/18 12:14:41;;;;;;;0.90;0.60;;;31.30;1.00;;;;;;5126344;27;20531;-56
2022/05/18 12:17:15;;;;;;;0.60;0.50;;;31.20;1.00;;;;;;5113420;27;20493;-57
2022/05/18 12:19:51;;;;;;;1.57;0.60;;;31.20;1.00;;;;;;5117849;27;20448;-56
2022/05/18 12:22:22;;;;;;;1.60;0.50;;;31.00;1.00;;;;;;5126864;27;20439;-57
2022/05/18 12:24:53;;;;;;;1.23;1.13;;;30.80;1.00;;;;;;5127104;27;20496;-57
2022/05/18 12:27:23;;;;;;;1.07;0.70;;;30.60;1.00;;;;;;5128644;27;20507;-57
2022/05/18 12:29:54;;;;;;;1.73;1.27;;;30.80;1.00;;;;;;5133249;27;20444;-56
2022/05/18 12:32:23;;;;;;;0.90;0.50;;;30.90;1.00;;;;;;5133782;27;20817;-55
2022/05/18 12:35:02;;;;;;;0.60;0.50;;;31.00;1.00;;;;;;5132642;27;20524;-56
2022/05/18 12:37:32;;;;;;;1.20;0.80;;;31.10;1.00;;;;;;5132811;27;20435;-56
2022/05/18 12:40:33;;;;;;;0.80;0.60;;;31.50;1.00;;;;;;5135397;27;20903;-56
2022/05/18 12:43:12;;;;;;;0.70;0.50;;;31.20;1.00;;;;;;5135098;27;20490;-56
2022/05/18 12:45:44;;;;;;;0.60;0.40;;;31.00;1.00;;;;;;5130982;27;20499;-57
2022/05/18 12:48:18;;;;;;;0.60;0.40;;;30.60;1.00;;;;;;5126605;27;20450;-58
2022/05/18 12:51:05;;;;;;;0.70;0.50;;;30.80;1.00;;;;;;5118937;27;20550;-57
2022/05/18 12:53:45;;;;;;;0.70;0.50;;;30.70;1.00;;;;;;5134659;27;20444;-57
2022/05/18 12:56:19;;;;;;;0.77;0.60;;;31.20;1.00;;;;;;5132943;27;20450;-56
2022/05/18 12:58:54;;;;;;;0.80;0.40;;;31.60;1.00;;;;;;5135727;27;20529;-60
2022/05/18 13:01:23;;;;;;;0.80;0.60;;;31.80;1.00;;;;;;5133234;27;20534;-60
2022/05/18 13:04:01;;;;;;;0.90;0.70;;;31.80;1.00;;;;;;5134601;27;20515;-60
2022/05/18 13:06:46;;;;;;;0.70;0.43;;;31.60;1.00;;;;;;5114461;28;20535;-61
2022/05/18 13:09:40;;;;;;;0.60;0.40;;;31.80;1.00;;;;;;5114082;27;20518;-61
2022/05/18 13:12:36;;;;;;;1.00;0.57;;;31.50;1.00;;;;;;5086667;27;20448;-62
2022/05/18 13:15:16;;;;;;;1.57;0.57;;;31.50;1.00;;;;;;5135065;27;20506;-63
2022/05/18 13:17:56;;;;;;;0.70;0.60;;;31.50;1.00;;;;;;5133674;27;20459;-61
2022/05/18 13:20:54;;;;;;;0.90;0.60;;;31.70;1.00;;;;;;5125002;27;20887;-60
2022/05/18 13:23:35;;;;;;;0.80;0.60;;;31.40;1.00;;;;;;5065333;28;20539;-62
2022/05/18 13:26:08;;;;;;;0.70;0.50;;;31.80;1.00;;;;;;5102870;28;20484;-61
2022/05/18 13:28:38;;;;;;;0.60;0.50;;;31.20;1.00;;;;;;5111281;28;20539;-61
2022/05/18 13:31:06;;;;;;;0.50;0.40;;;31.00;1.00;;;;;;5092998;28;20470;-61